createdAt,value
2018-07-16T00:01:20.730Z,24.70
2018-07-16T00:03:49.608Z,24.50
2018-07-16T00:06:18.525Z,24.50
2018-07-16T00:08:47.443Z,24.50
2018-07-16T00:11:16.322Z,24.70
2018-07-16T00:13:45.227Z,24.70
2018-07-16T00:16:14.096Z,24.80
2018-07-16T00:18:43.054Z,24.80
2018-07-16T00:21:11.972Z,24.40
2018-07-16T00:23:41.017Z,24.60
2018-07-16T00:26:10.116Z,24.40
2018-07-16T00:28:39.164Z,24.40
2018-07-16T00:31:08.253Z,24.40
2018-07-16T00:33:37.408Z,24.50
2018-07-16T00:36:06.515Z,24.40
2018-07-16T00:38:35.821Z,23.70
2018-07-16T00:41:05.059Z,24.20
2018-07-16T00:43:34.256Z,24.30
2018-07-16T00:46:03.473Z,24.50
2018-07-16T00:48:32.470Z,24.40
2018-07-16T00:51:01.621Z,24.50
2018-07-16T00:53:30.523Z,24.40
2018-07-16T00:55:59.425Z,24.50
2018-07-16T00:58:28.342Z,24.50
2018-07-16T01:00:57.267Z,24.50
2018-07-16T01:03:26.137Z,24.50
2018-07-16T01:05:55.049Z,24.20
2018-07-16T01:08:24.012Z,23.90
2018-07-16T01:10:52.965Z,21.50
2018-07-16T01:13:21.851Z,22.90
2018-07-16T01:15:50.776Z,23.60
2018-07-16T01:18:19.683Z,24.00
2018-07-16T01:20:48.659Z,23.90
2018-07-16T01:23:17.537Z,24.10
2018-07-16T01:25:46.525Z,23.00
2018-07-16T01:28:15.424Z,23.80
2018-07-16T01:30:44.357Z,24.10
2018-07-16T01:33:13.257Z,24.00
2018-07-16T01:35:42.176Z,24.10
2018-07-16T01:38:11.091Z,23.80
2018-07-16T01:40:43.320Z,23.80
2018-07-16T01:43:12.181Z,24.10
2018-07-16T01:45:41.092Z,24.20
2018-07-16T01:48:09.972Z,24.20
2018-07-16T01:50:38.880Z,24.20
2018-07-16T01:53:08.005Z,24.20
2018-07-16T01:55:36.908Z,24.20
2018-07-16T01:58:05.793Z,24.10
2018-07-16T02:00:42.241Z,24.10
2018-07-16T02:03:11.120Z,24.20
2018-07-16T02:05:40.137Z,24.20
2018-07-16T02:08:09.031Z,24.20
2018-07-16T02:10:38.817Z,24.10
2018-07-16T02:13:08.731Z,24.10
2018-07-16T02:15:37.668Z,24.10
2018-07-16T02:18:06.548Z,24.10
2018-07-16T02:20:35.484Z,24.10
2018-07-16T02:23:04.412Z,24.10
2018-07-16T02:25:33.272Z,24.10
2018-07-16T02:28:02.204Z,24.10
2018-07-16T02:30:31.118Z,24.00
2018-07-16T02:33:00.019Z,24.00
2018-07-16T02:35:29.228Z,24.00
2018-07-16T02:37:58.473Z,24.00
2018-07-16T02:40:27.689Z,24.00
2018-07-16T02:42:56.922Z,24.00
2018-07-16T02:45:26.297Z,24.00
2018-07-16T02:47:55.549Z,23.80
2018-07-16T02:50:24.458Z,23.80
2018-07-16T02:52:53.397Z,23.80
2018-07-16T02:55:22.264Z,23.90
2018-07-16T02:57:51.421Z,23.80
2018-07-16T03:00:20.472Z,23.80
2018-07-16T03:02:49.369Z,23.70
2018-07-16T03:05:19.416Z,23.70
2018-07-16T03:07:49.272Z,23.70
2018-07-16T03:10:18.288Z,23.70
2018-07-16T03:12:47.348Z,23.70
2018-07-16T03:15:16.337Z,23.70
2018-07-16T03:17:45.221Z,23.70
2018-07-16T03:20:14.241Z,23.60
2018-07-16T03:22:43.117Z,23.60
2018-07-16T03:25:12.057Z,23.50
2018-07-16T03:27:41.024Z,23.50
2018-07-16T03:30:09.957Z,23.50
2018-07-16T03:32:38.829Z,23.50
2018-07-16T03:35:07.776Z,23.50
2018-07-16T03:37:36.679Z,23.50
2018-07-16T03:40:05.721Z,23.60
2018-07-16T03:42:34.628Z,23.60
2018-07-16T03:45:03.811Z,23.50
2018-07-16T03:47:32.716Z,23.50
2018-07-16T03:50:01.658Z,23.50
2018-07-16T03:52:30.565Z,23.50
2018-07-16T03:54:59.492Z,23.40
2018-07-16T03:57:28.390Z,23.40
2018-07-16T03:59:57.479Z,23.40
2018-07-16T04:02:26.665Z,23.40
2018-07-16T04:04:55.605Z,23.40
2018-07-16T04:07:24.577Z,22.70
2018-07-16T04:10:00.073Z,22.70
2018-07-16T04:12:29.384Z,22.50
2018-07-16T04:14:58.410Z,22.00
2018-07-16T04:17:27.384Z,21.80
2018-07-16T04:19:56.386Z,22.60
2018-07-16T04:22:25.253Z,21.80
2018-07-16T04:24:54.281Z,22.50
2018-07-16T04:27:23.321Z,22.80
2018-07-16T04:29:52.505Z,22.00
2018-07-16T04:32:21.469Z,22.00
2018-07-16T04:34:50.502Z,21.50
2018-07-16T04:37:19.717Z,21.80
2018-07-16T04:39:48.888Z,21.00
2018-07-16T04:42:18.145Z,21.60
2018-07-16T04:44:47.333Z,21.00
2018-07-16T04:47:16.814Z,20.70
2018-07-16T04:49:46.488Z,20.90
2018-07-16T04:52:15.625Z,22.80
2018-07-16T04:54:44.864Z,24.30
2018-07-16T04:57:13.830Z,26.80
2018-07-16T04:59:42.723Z,25.90
2018-07-16T05:02:11.811Z,25.70
2018-07-16T05:04:40.760Z,25.20
2018-07-16T05:07:09.740Z,23.90
2018-07-16T05:09:38.607Z,24.40
2018-07-16T05:12:07.844Z,25.50
2018-07-16T05:14:36.778Z,24.80
2018-07-16T05:17:05.684Z,24.50
2018-07-16T05:19:34.570Z,23.90
2018-07-16T05:22:03.485Z,24.00
2018-07-16T05:24:32.520Z,23.20
2018-07-16T05:27:01.738Z,25.00
2018-07-16T05:29:30.989Z,26.50
2018-07-16T05:32:00.148Z,25.80
2018-07-16T05:34:29.251Z,26.30
2018-07-16T05:36:58.443Z,26.70
2018-07-16T05:39:27.593Z,26.40
2018-07-16T05:41:56.974Z,24.10
2018-07-16T05:44:26.521Z,24.90
2018-07-16T05:46:55.699Z,25.00
2018-07-16T05:49:24.770Z,25.60
2018-07-16T05:51:53.788Z,27.50
2018-07-16T05:54:22.732Z,28.10
2018-07-16T05:56:51.640Z,29.30
2018-07-16T05:59:20.549Z,28.50
2018-07-16T06:01:49.437Z,30.00
2018-07-16T06:04:18.348Z,28.30
2018-07-16T06:06:47.268Z,27.50
2018-07-16T06:09:16.209Z,28.30
2018-07-16T06:11:45.076Z,28.60
2018-07-16T06:14:13.988Z,30.40
2018-07-16T06:16:42.871Z,30.80
2018-07-16T06:19:11.820Z,31.40
2018-07-16T06:21:40.708Z,31.10
2018-07-16T06:24:09.825Z,29.90
2018-07-16T06:26:38.601Z,30.60
2018-07-16T06:29:07.501Z,31.90
2018-07-16T06:31:36.468Z,31.90
2018-07-16T06:34:05.653Z,30.40
2018-07-16T06:36:34.725Z,30.60
2018-07-16T06:39:04.700Z,30.20
2018-07-16T06:41:34.303Z,31.80
2018-07-16T06:44:03.217Z,32.00
2018-07-16T06:46:32.484Z,31.10
2018-07-16T06:49:01.650Z,31.10
2018-07-16T06:51:30.835Z,31.70
2018-07-16T06:53:59.947Z,31.00
2018-07-16T06:56:29.107Z,30.50
2018-07-16T06:58:58.379Z,30.80
2018-07-16T07:01:27.560Z,31.20
2018-07-16T07:03:56.693Z,31.30
2018-07-16T07:06:26.089Z,29.20
2018-07-16T07:08:55.209Z,31.60
2018-07-16T07:11:25.231Z,33.40
2018-07-16T07:13:54.304Z,32.30
2018-07-16T07:16:23.317Z,33.30
2018-07-16T07:18:52.199Z,33.90
2018-07-16T07:21:21.260Z,31.10
2018-07-16T07:23:50.171Z,33.50
2018-07-16T07:26:19.037Z,32.70
2018-07-16T07:28:48.141Z,31.70
2018-07-16T07:31:17.161Z,31.80
2018-07-16T07:33:46.449Z,32.50
2018-07-16T07:36:15.415Z,32.10
2018-07-16T07:38:44.418Z,32.00
2018-07-16T07:41:13.304Z,33.60
2018-07-16T07:43:42.200Z,33.80
2018-07-16T07:46:11.069Z,33.40
2018-07-16T07:48:39.956Z,33.20
2018-07-16T07:51:08.852Z,34.70
2018-07-16T07:53:37.750Z,35.80
2018-07-16T07:56:06.615Z,34.50
2018-07-16T07:58:35.520Z,31.90
2018-07-16T08:01:04.431Z,33.50
2018-07-16T08:03:33.501Z,34.30
2018-07-16T08:06:07.583Z,35.20
2018-07-16T08:08:37.561Z,34.50
2018-07-16T08:11:07.000Z,33.40
2018-07-16T08:13:35.926Z,31.60
2018-07-16T08:16:04.848Z,31.90
2018-07-16T08:18:33.985Z,31.30
2018-07-16T08:21:03.164Z,32.60
2018-07-16T08:23:32.236Z,31.30
2018-07-16T08:26:01.256Z,33.40
2018-07-16T08:28:30.392Z,31.90
2018-07-16T08:30:59.366Z,34.40
2018-07-16T08:33:28.375Z,33.70
2018-07-16T08:35:57.252Z,32.10
2018-07-16T08:38:26.185Z,33.50
2018-07-16T08:40:55.544Z,33.60
2018-07-16T08:43:24.593Z,33.10
2018-07-16T08:45:53.880Z,31.40
2018-07-16T08:48:22.936Z,31.80
2018-07-16T08:50:52.195Z,34.50
2018-07-16T08:53:21.292Z,32.90
2018-07-16T08:55:50.418Z,31.40
2018-07-16T08:58:19.789Z,33.40
2018-07-16T09:00:48.968Z,34.00
2018-07-16T09:03:18.409Z,34.40
2018-07-16T09:05:52.815Z,32.50
2018-07-16T09:08:22.301Z,32.50
2018-07-16T09:10:51.573Z,34.90
2018-07-16T09:13:20.960Z,34.50
2018-07-16T09:15:50.215Z,34.10
2018-07-16T09:18:19.745Z,33.50
2018-07-16T09:20:48.928Z,33.90
2018-07-16T09:23:18.330Z,31.90
2018-07-16T09:25:47.695Z,34.50
2018-07-16T09:28:16.862Z,33.70
2018-07-16T09:30:46.390Z,34.20
2018-07-16T09:33:15.396Z,33.00
2018-07-16T09:35:44.377Z,34.10
2018-07-16T09:38:13.622Z,34.00
2018-07-16T09:40:42.640Z,34.70
2018-07-16T09:43:11.592Z,34.40
2018-07-16T09:45:40.532Z,34.00
2018-07-16T09:48:09.583Z,35.20
2018-07-16T09:50:38.473Z,35.80
2018-07-16T09:53:07.644Z,35.40
2018-07-16T09:55:36.551Z,34.10
2018-07-16T09:58:05.504Z,34.30
2018-07-16T10:00:41.009Z,35.30
2018-07-16T10:03:10.305Z,36.20
2018-07-16T10:05:39.197Z,34.90
2018-07-16T10:08:08.500Z,33.50
2018-07-16T10:10:37.376Z,33.70
2018-07-16T10:13:06.568Z,33.40
2018-07-16T10:15:35.452Z,32.70
2018-07-16T10:18:04.348Z,34.60
2018-07-16T10:20:33.373Z,34.90
2018-07-16T10:23:02.190Z,33.70
2018-07-16T10:25:31.068Z,33.70
2018-07-16T10:27:59.901Z,33.70
2018-07-16T10:30:28.800Z,32.90
2018-07-16T10:32:57.664Z,32.20
2018-07-16T10:35:26.573Z,33.20
2018-07-16T10:37:55.633Z,34.30
2018-07-16T10:40:24.716Z,35.50
2018-07-16T10:42:53.926Z,34.70
2018-07-16T10:45:23.087Z,33.30
2018-07-16T10:47:52.776Z,34.00
2018-07-16T10:50:21.930Z,33.00
2018-07-16T10:52:51.572Z,33.30
2018-07-16T10:55:20.802Z,35.20
2018-07-16T10:57:50.129Z,35.20
2018-07-16T11:00:19.324Z,34.00
2018-07-16T11:02:48.789Z,33.10
2018-07-16T11:05:17.997Z,35.10
2018-07-16T11:07:47.429Z,35.30
2018-07-16T11:10:16.767Z,35.30
2018-07-16T11:12:46.021Z,34.60
2018-07-16T11:15:15.073Z,33.20
2018-07-16T11:17:44.057Z,34.30
2018-07-16T11:20:12.985Z,33.20
2018-07-16T11:22:42.082Z,32.70
2018-07-16T11:25:10.961Z,32.50
2018-07-16T11:27:40.077Z,30.80
2018-07-16T11:30:09.623Z,30.20
2018-07-16T11:32:38.817Z,29.30
2018-07-16T11:35:08.171Z,29.30
2018-07-16T11:37:37.336Z,29.70
2018-07-16T11:40:06.459Z,29.40
2018-07-16T11:42:35.444Z,29.80
2018-07-16T11:45:04.584Z,29.90
2018-07-16T11:47:33.483Z,30.30
2018-07-16T11:50:02.444Z,30.50
2018-07-16T11:52:31.408Z,30.40
2018-07-16T11:55:00.408Z,30.80
2018-07-16T11:57:29.426Z,31.00
2018-07-16T11:59:58.315Z,31.10
2018-07-16T12:02:27.315Z,30.00
2018-07-16T12:04:56.244Z,29.40
2018-07-16T12:07:25.183Z,30.00
2018-07-16T12:09:54.112Z,30.00
2018-07-16T12:12:23.130Z,29.30
2018-07-16T12:14:51.992Z,29.40
2018-07-16T12:17:20.873Z,29.10
2018-07-16T12:19:49.780Z,29.10
2018-07-16T12:22:18.657Z,29.60
2018-07-16T12:24:47.577Z,30.20
2018-07-16T12:27:16.457Z,30.60
2018-07-16T12:29:45.589Z,30.80
2018-07-16T12:32:14.665Z,31.10
2018-07-16T12:34:43.853Z,29.90
2018-07-16T12:37:13.013Z,29.90
2018-07-16T12:39:42.126Z,30.60
2018-07-16T12:42:11.415Z,30.10
2018-07-16T12:44:40.481Z,30.50
2018-07-16T12:47:09.825Z,30.00
2018-07-16T12:49:39.132Z,29.20
2018-07-16T12:52:08.487Z,29.10
2018-07-16T12:54:37.852Z,29.90
2018-07-16T12:57:07.064Z,29.80
2018-07-16T12:59:36.226Z,30.80
2018-07-16T13:02:05.367Z,30.80
2018-07-16T13:04:34.235Z,31.10
2018-07-16T13:07:03.187Z,31.30
2018-07-16T13:09:32.056Z,31.20
2018-07-16T13:12:00.957Z,30.80
2018-07-16T13:14:29.831Z,30.70
2018-07-16T13:16:58.935Z,30.60
2018-07-16T13:19:27.796Z,30.50
2018-07-16T13:21:56.905Z,30.40
2018-07-16T13:24:25.784Z,30.70
2018-07-16T13:26:54.719Z,31.30
2018-07-16T13:29:23.581Z,31.70
2018-07-16T13:31:52.612Z,31.20
2018-07-16T13:34:21.480Z,31.20
2018-07-16T13:36:50.368Z,31.20
2018-07-16T13:39:19.228Z,31.10
2018-07-16T13:41:48.144Z,31.30
2018-07-16T13:44:17.009Z,31.70
2018-07-16T13:46:46.271Z,31.90
2018-07-16T13:49:15.316Z,31.30
2018-07-16T13:51:44.409Z,30.60
2018-07-16T13:54:13.540Z,30.00
2018-07-16T13:56:42.612Z,30.10
2018-07-16T13:59:11.751Z,30.30
2018-07-16T14:01:41.276Z,30.40
2018-07-16T14:04:10.516Z,29.90
2018-07-16T14:06:39.765Z,30.50
2018-07-16T14:09:09.320Z,30.20
2018-07-16T14:11:38.682Z,30.10
2018-07-16T14:14:07.917Z,29.90
2018-07-16T14:16:37.198Z,30.10
2018-07-16T14:19:06.770Z,30.90
2018-07-16T14:21:36.020Z,30.90
2018-07-16T14:24:05.020Z,30.60
2018-07-16T14:26:33.916Z,30.80
2018-07-16T14:29:02.848Z,31.10
2018-07-16T14:31:32.160Z,31.60
2018-07-16T14:34:01.349Z,31.00
2018-07-16T14:36:30.268Z,31.20
2018-07-16T14:38:59.156Z,31.60
2018-07-16T14:41:28.140Z,31.80
2018-07-16T14:43:57.344Z,32.00
2018-07-16T14:46:26.716Z,31.30
2018-07-16T14:48:55.785Z,30.40
2018-07-16T14:51:25.251Z,31.20
2018-07-16T14:53:54.519Z,31.20
2018-07-16T14:56:23.752Z,31.50
2018-07-16T14:58:53.000Z,31.80
2018-07-16T15:01:22.321Z,30.90
2018-07-16T15:03:51.536Z,31.00
2018-07-16T15:06:20.980Z,31.10
2018-07-16T15:08:50.547Z,31.00
2018-07-16T15:11:19.957Z,30.60
2018-07-16T15:13:49.226Z,31.10
2018-07-16T15:16:18.563Z,30.60
2018-07-16T15:18:47.844Z,31.00
2018-07-16T15:21:17.386Z,31.10
2018-07-16T15:23:46.033Z,31.60
2018-07-16T15:26:14.940Z,30.80
2018-07-16T15:28:43.888Z,31.00
2018-07-16T15:31:12.752Z,31.10
2018-07-16T15:33:41.896Z,30.30
2018-07-16T15:36:10.981Z,30.40
2018-07-16T15:38:40.215Z,30.40
2018-07-16T15:41:09.337Z,30.50
2018-07-16T15:43:38.269Z,30.60
2018-07-16T15:46:07.213Z,31.20
2018-07-16T15:48:36.211Z,31.70
2018-07-16T15:51:05.149Z,31.80
2018-07-16T15:53:34.138Z,31.90
2018-07-16T15:56:03.006Z,31.40
2018-07-16T15:58:31.933Z,30.90
2018-07-16T16:01:00.809Z,30.50
2018-07-16T16:03:29.763Z,30.80
2018-07-16T16:05:58.648Z,30.50
2018-07-16T16:08:27.616Z,30.60
2018-07-16T16:10:56.611Z,31.10
2018-07-16T16:13:25.749Z,31.20
2018-07-16T16:15:54.872Z,31.30
2018-07-16T16:18:24.033Z,31.50
2018-07-16T16:20:53.353Z,31.80
2018-07-16T16:23:22.606Z,31.80
2018-07-16T16:25:51.893Z,31.70
2018-07-16T16:28:21.286Z,31.10
2018-07-16T16:30:50.712Z,31.10
2018-07-16T16:33:20.060Z,30.70
2018-07-16T16:35:49.554Z,31.20
2018-07-16T16:38:19.044Z,31.90
2018-07-16T16:40:48.376Z,31.50
2018-07-16T16:43:17.532Z,31.90
2018-07-16T16:45:46.688Z,31.70
2018-07-16T16:48:15.657Z,32.00
2018-07-16T16:50:44.837Z,32.20
2018-07-16T16:53:13.729Z,31.20
2018-07-16T16:55:42.874Z,30.90
2018-07-16T16:58:11.767Z,30.30
2018-07-16T17:00:40.964Z,30.60
2018-07-16T17:03:09.868Z,30.80
2018-07-16T17:05:39.027Z,30.50
2018-07-16T17:08:07.895Z,31.10
2018-07-16T17:10:36.788Z,30.90
2018-07-16T17:13:05.672Z,30.60
2018-07-16T17:15:34.601Z,30.90
2018-07-16T17:18:03.495Z,31.30
2018-07-16T17:20:32.452Z,31.00
2018-07-16T17:23:01.305Z,31.10
2018-07-16T17:25:30.191Z,31.50
2018-07-16T17:27:59.113Z,31.50
2018-07-16T17:30:27.974Z,31.40
2018-07-16T17:32:57.062Z,30.50
2018-07-16T17:35:26.148Z,30.70
2018-07-16T17:37:55.163Z,31.30
2018-07-16T17:40:24.108Z,30.50
2018-07-16T17:42:53.033Z,30.30
2018-07-16T17:45:22.062Z,30.20
2018-07-16T17:47:51.043Z,30.90
2018-07-16T17:50:20.140Z,31.20
2018-07-16T17:52:49.432Z,31.00
2018-07-16T17:55:18.309Z,29.90
2018-07-16T17:57:47.205Z,30.00
2018-07-16T18:00:19.700Z,30.20
2018-07-16T18:02:48.621Z,30.80
2018-07-16T18:05:17.484Z,31.10
2018-07-16T18:07:46.477Z,30.70
2018-07-16T18:10:15.340Z,30.00
2018-07-16T18:12:44.228Z,29.60
2018-07-16T18:15:13.100Z,29.70
2018-07-16T18:17:42.208Z,30.00
2018-07-16T18:20:11.039Z,29.40
2018-07-16T18:22:39.897Z,29.70
2018-07-16T18:25:08.833Z,29.50
2018-07-16T18:27:37.688Z,29.00
2018-07-16T18:30:06.656Z,29.30
2018-07-16T18:32:35.544Z,29.30
2018-07-16T18:35:04.569Z,29.70
2018-07-16T18:37:33.561Z,30.00
2018-07-16T18:40:02.862Z,29.70
2018-07-16T18:42:31.723Z,29.40
2018-07-16T18:45:00.673Z,28.80
2018-07-16T18:47:29.536Z,28.90
2018-07-16T18:49:58.472Z,28.90
2018-07-16T18:52:27.342Z,29.30
2018-07-16T18:54:56.386Z,28.90
2018-07-16T18:57:25.300Z,28.80
2018-07-16T18:59:54.210Z,28.20
2018-07-16T19:02:23.057Z,28.80
2018-07-16T19:04:52.005Z,29.00
2018-07-16T19:07:23.506Z,28.60
2018-07-16T19:09:52.755Z,28.20
2018-07-16T19:12:21.676Z,27.90
2018-07-16T19:14:54.414Z,28.10
2018-07-16T19:17:23.365Z,28.30
2018-07-16T19:19:52.276Z,28.60
2018-07-16T19:22:21.221Z,28.60
2018-07-16T19:24:50.291Z,28.20
2018-07-16T19:27:19.280Z,28.30
2018-07-16T19:29:48.272Z,28.20
2018-07-16T19:32:17.296Z,28.20
2018-07-16T19:34:46.348Z,28.00
2018-07-16T19:37:15.396Z,28.40
2018-07-16T19:39:44.459Z,28.60
2018-07-16T19:42:13.812Z,28.30
2018-07-16T19:44:42.932Z,28.30
2018-07-16T19:47:12.407Z,28.30
2018-07-16T19:49:41.474Z,28.30
2018-07-16T19:52:10.599Z,28.20
2018-07-16T19:54:39.568Z,28.10
2018-07-16T19:57:08.508Z,27.90
2018-07-16T19:59:37.437Z,28.00
2018-07-16T20:02:06.446Z,27.80
2018-07-16T20:04:35.379Z,27.80
2018-07-16T20:07:04.353Z,27.70
2018-07-16T20:09:33.321Z,27.50
2018-07-16T20:12:02.149Z,27.40
2018-07-16T20:14:31.008Z,27.40
2018-07-16T20:16:59.908Z,27.30
2018-07-16T20:19:28.770Z,27.30
2018-07-16T20:21:57.652Z,27.30
2018-07-16T20:24:26.583Z,27.20
2018-07-16T20:26:55.541Z,27.30
2018-07-16T20:29:24.572Z,27.30
2018-07-16T20:31:53.640Z,27.10
2018-07-16T20:34:22.800Z,27.10
2018-07-16T20:36:51.894Z,27.00
2018-07-16T20:39:21.108Z,26.90
2018-07-16T20:41:50.085Z,26.90
2018-07-16T20:44:19.236Z,26.80
2018-07-16T20:46:48.483Z,26.80
2018-07-16T20:49:17.652Z,26.70
2018-07-16T20:51:46.727Z,26.70
2018-07-16T20:54:15.716Z,26.60
2018-07-16T20:56:44.621Z,26.50
2018-07-16T20:59:13.564Z,26.40
2018-07-16T21:01:42.484Z,26.40
2018-07-16T21:04:11.376Z,26.40
2018-07-16T21:06:40.295Z,26.50
2018-07-16T21:09:09.864Z,26.50
2018-07-16T21:11:38.944Z,26.40
2018-07-16T21:14:08.057Z,26.20
2018-07-16T21:16:36.917Z,26.20
2018-07-16T21:19:05.901Z,26.20
2018-07-16T21:21:34.813Z,26.10
2018-07-16T21:24:03.692Z,26.00
2018-07-16T21:26:32.621Z,26.30
2018-07-16T21:29:01.476Z,26.40
2018-07-16T21:31:30.356Z,26.30
2018-07-16T21:33:59.292Z,26.20
2018-07-16T21:36:28.206Z,26.00
2018-07-16T21:38:57.072Z,26.00
2018-07-16T21:41:26.133Z,25.90
2018-07-16T21:43:55.199Z,25.80
2018-07-16T21:46:24.333Z,25.90
2018-07-16T21:48:53.425Z,25.90
2018-07-16T21:51:22.523Z,25.90
2018-07-16T21:53:51.467Z,25.80
2018-07-16T21:56:20.560Z,26.00
2018-07-16T21:58:49.600Z,26.20
2018-07-16T22:01:18.655Z,26.40
2018-07-16T22:03:47.690Z,26.50
2018-07-16T22:06:16.779Z,26.50
2018-07-16T22:08:45.740Z,26.60
2018-07-16T22:11:14.649Z,26.60
2018-07-16T22:13:43.523Z,26.60
2018-07-16T22:16:12.505Z,26.40
2018-07-16T22:18:41.369Z,25.90
2018-07-16T22:21:10.288Z,26.10
2018-07-16T22:23:39.140Z,26.40
2018-07-16T22:26:08.029Z,26.40
2018-07-16T22:28:36.920Z,26.00
2018-07-16T22:31:05.820Z,25.20
2018-07-16T22:33:34.712Z,24.10
2018-07-16T22:36:03.660Z,24.60
2018-07-16T22:38:32.554Z,25.30
2018-07-16T22:41:01.424Z,25.80
2018-07-16T22:43:30.321Z,26.10
2018-07-16T22:45:59.201Z,26.30
2018-07-16T22:48:28.196Z,26.40
2018-07-16T22:50:57.109Z,26.50
2018-07-16T22:53:26.065Z,26.40
2018-07-16T22:55:55.029Z,26.40
2018-07-16T22:58:24.095Z,26.50
2018-07-16T23:00:53.079Z,26.30
2018-07-16T23:03:22.237Z,26.40
2018-07-16T23:05:51.241Z,26.50
2018-07-16T23:08:20.353Z,26.50
2018-07-16T23:10:49.528Z,26.60
2018-07-16T23:13:18.646Z,26.50
2018-07-16T23:15:47.824Z,26.10
2018-07-16T23:18:16.995Z,26.10
2018-07-16T23:20:45.981Z,26.10
2018-07-16T23:23:14.945Z,26.30
2018-07-16T23:25:43.842Z,26.40
2018-07-16T23:28:12.728Z,26.40
2018-07-16T23:30:41.640Z,26.40
2018-07-16T23:33:10.521Z,26.40
2018-07-16T23:35:39.454Z,26.40
2018-07-16T23:38:08.333Z,26.40
2018-07-16T23:40:37.256Z,26.40
2018-07-16T23:43:06.367Z,26.40
2018-07-16T23:45:35.286Z,26.30
2018-07-16T23:48:04.184Z,26.30
2018-07-16T23:50:33.093Z,26.40
2018-07-16T23:53:01.997Z,26.30
2018-07-16T23:55:30.896Z,26.30
2018-07-16T23:57:59.775Z,26.30
